createdAt,value
2022-11-03T00:02:11.996Z,2.08
2022-11-03T00:04:39.344Z,2.83
2022-11-03T00:07:07.815Z,1.90
2022-11-03T00:09:35.725Z,2.50
2022-11-03T00:12:03.074Z,2.63
2022-11-03T00:14:31.589Z,3.10
2022-11-03T00:16:58.959Z,2.60
2022-11-03T00:19:26.250Z,2.33
2022-11-03T00:21:53.566Z,1.95
2022-11-03T00:24:20.955Z,2.70
2022-11-03T00:26:48.421Z,1.52
2022-11-03T00:29:16.094Z,2.10
2022-11-03T00:31:45.192Z,1.23
2022-11-03T00:34:12.659Z,1.23
2022-11-03T00:36:43.469Z,1.85
2022-11-03T00:39:11.511Z,1.85
2022-11-03T00:41:39.378Z,1.63
2022-11-03T00:44:07.302Z,1.15
2022-11-03T00:46:35.577Z,1.67
2022-11-03T00:49:05.084Z,1.58
2022-11-03T00:51:35.021Z,1.95
2022-11-03T00:54:04.035Z,1.38
2022-11-03T00:56:33.740Z,0.90
2022-11-03T00:59:02.734Z,2.03
2022-11-03T01:01:40.566Z,1.40
2022-11-03T01:04:30.454Z,1.10
2022-11-03T01:06:59.374Z,1.40
2022-11-03T01:09:26.604Z,1.40
2022-11-03T01:12:01.236Z,1.33
2022-11-03T01:14:34.846Z,1.40
2022-11-03T01:17:05.206Z,1.05
2022-11-03T01:19:32.695Z,1.30
2022-11-03T01:22:00.002Z,0.98
2022-11-03T01:24:27.356Z,1.40
2022-11-03T01:26:55.309Z,0.95
2022-11-03T01:29:22.515Z,1.20
2022-11-03T01:31:49.935Z,1.63
2022-11-03T01:34:19.648Z,1.48
2022-11-03T01:36:47.799Z,0.77
2022-11-03T01:39:17.911Z,1.15
2022-11-03T01:41:48.481Z,1.20
2022-11-03T01:44:15.734Z,0.88
2022-11-03T01:46:46.817Z,0.77
2022-11-03T01:49:23.183Z,1.02
2022-11-03T01:51:58.549Z,0.80
2022-11-03T01:54:28.614Z,1.23
2022-11-03T01:56:57.377Z,0.98
2022-11-03T01:59:25.922Z,1.05
2022-11-03T02:01:53.481Z,1.00
2022-11-03T02:04:27.249Z,0.77
2022-11-03T02:07:13.696Z,0.80
2022-11-03T02:09:41.129Z,1.35
2022-11-03T02:12:10.122Z,0.65
2022-11-03T02:14:45.198Z,1.30
2022-11-03T02:17:14.766Z,2.38
2022-11-03T02:19:47.076Z,1.17
2022-11-03T02:22:20.215Z,1.20
2022-11-03T02:24:54.062Z,0.88
2022-11-03T02:27:22.052Z,0.93
2022-11-03T02:29:49.634Z,1.20
2022-11-03T02:32:23.836Z,1.63
2022-11-03T02:35:12.919Z,0.80
2022-11-03T02:37:46.008Z,1.27
2022-11-03T02:40:18.425Z,0.82
2022-11-03T02:42:50.849Z,1.20
2022-11-03T02:45:21.105Z,1.17
2022-11-03T02:47:50.756Z,1.30
2022-11-03T02:50:20.125Z,1.23
2022-11-03T02:52:48.835Z,1.30
2022-11-03T02:55:35.411Z,1.02
2022-11-03T02:58:27.072Z,1.15
2022-11-03T03:01:00.911Z,1.33
2022-11-03T03:03:34.287Z,2.22
2022-11-03T03:06:09.372Z,1.20
2022-11-03T03:08:41.810Z,1.42
2022-11-03T03:11:12.812Z,1.63
2022-11-03T03:13:43.527Z,2.00
2022-11-03T03:16:14.126Z,2.03
2022-11-03T03:19:03.557Z,4.78
2022-11-03T03:21:37.310Z,1.98
2022-11-03T03:24:19.977Z,1.90
2022-11-03T03:26:50.488Z,2.55
2022-11-03T03:29:23.089Z,2.03
2022-11-03T03:31:56.429Z,3.50
2022-11-03T03:34:35.595Z,2.55
2022-11-03T03:37:06.119Z,3.15
2022-11-03T03:39:37.613Z,3.22
2022-11-03T03:42:07.210Z,3.08
2022-11-03T03:44:34.889Z,4.35
2022-11-03T03:47:10.054Z,2.85
2022-11-03T03:49:37.451Z,3.65
2022-11-03T03:52:05.297Z,4.18
2022-11-03T03:54:32.755Z,2.60
2022-11-03T03:57:03.923Z,3.15
2022-11-03T03:59:31.884Z,3.30
2022-11-03T04:01:59.699Z,4.32
2022-11-03T04:04:27.097Z,2.85
2022-11-03T04:07:14.517Z,3.22
2022-11-03T04:09:42.028Z,2.63
2022-11-03T04:12:28.387Z,4.32
2022-11-03T04:15:14.346Z,3.38
2022-11-03T04:18:04.296Z,2.53
2022-11-03T04:20:50.984Z,1.98
2022-11-03T04:23:19.003Z,2.20
2022-11-03T04:25:53.388Z,2.03
2022-11-03T04:28:21.679Z,1.80
2022-11-03T04:30:49.917Z,2.22
2022-11-03T04:33:21.315Z,0.82
2022-11-03T04:35:48.865Z,3.88
2022-11-03T04:38:16.245Z,2.08
2022-11-03T04:40:53.619Z,1.98
2022-11-03T04:43:29.952Z,3.08
2022-11-03T04:45:57.299Z,1.25
2022-11-03T04:48:27.105Z,2.20
2022-11-03T04:50:57.769Z,2.03
2022-11-03T04:53:30.678Z,2.53
2022-11-03T04:56:06.110Z,1.65
2022-11-03T04:58:36.262Z,1.73
2022-11-03T05:01:04.842Z,1.77
2022-11-03T05:03:36.490Z,2.38
2022-11-03T05:06:20.224Z,1.55
2022-11-03T05:08:52.263Z,0.95
2022-11-03T05:11:30.552Z,0.95
2022-11-03T05:14:22.201Z,2.22
2022-11-03T05:16:53.796Z,1.83
2022-11-03T05:19:32.647Z,1.23
2022-11-03T05:22:02.690Z,0.75
2022-11-03T05:24:31.120Z,1.00
2022-11-03T05:26:59.813Z,1.52
2022-11-03T05:29:34.763Z,1.20
2022-11-03T05:32:02.326Z,2.88
2022-11-03T05:34:40.533Z,1.45
2022-11-03T05:37:10.726Z,1.23
2022-11-03T05:39:41.396Z,1.40
2022-11-03T05:42:24.028Z,1.45
2022-11-03T05:44:52.347Z,1.90
2022-11-03T05:47:19.643Z,2.00
2022-11-03T05:49:49.086Z,1.85
2022-11-03T05:52:22.398Z,1.83
2022-11-03T05:54:51.125Z,1.88
2022-11-03T05:57:19.157Z,2.20
2022-11-03T05:59:49.706Z,3.25
2022-11-03T06:02:41.197Z,2.08
2022-11-03T06:05:22.857Z,2.05
2022-11-03T06:07:53.109Z,2.15
2022-11-03T06:10:30.941Z,2.45
2022-11-03T06:13:30.335Z,2.22
2022-11-03T06:16:32.261Z,2.55
2022-11-03T06:19:01.811Z,2.03
2022-11-03T06:21:30.286Z,1.48
2022-11-03T06:23:59.357Z,0.70
2022-11-03T06:26:28.582Z,0.90
2022-11-03T06:28:59.968Z,0.65
2022-11-03T06:31:28.929Z,0.50
2022-11-03T06:33:58.084Z,0.80
2022-11-03T06:36:30.244Z,0.80
2022-11-03T06:39:02.075Z,0.88
2022-11-03T06:41:32.322Z,1.58
2022-11-03T06:44:02.844Z,0.90
2022-11-03T06:46:30.928Z,2.00
2022-11-03T06:49:00.189Z,1.10
2022-11-03T06:51:29.311Z,1.75
2022-11-03T06:54:00.555Z,1.77
2022-11-03T06:56:35.378Z,1.65
2022-11-03T06:59:03.098Z,2.63
2022-11-03T07:01:33.527Z,1.85
2022-11-03T07:04:16.341Z,1.95
2022-11-03T07:06:50.488Z,2.13
2022-11-03T07:09:23.029Z,1.50
2022-11-03T07:11:53.738Z,1.95
2022-11-03T07:14:32.345Z,1.80
2022-11-03T07:17:06.148Z,2.58
2022-11-03T07:19:44.811Z,1.95
2022-11-03T07:22:21.965Z,2.45
2022-11-03T07:24:53.647Z,1.63
2022-11-03T07:27:25.827Z,1.88
2022-11-03T07:29:58.250Z,2.85
2022-11-03T07:32:33.180Z,1.65
2022-11-03T07:35:13.928Z,1.55
2022-11-03T07:37:41.577Z,1.95
2022-11-03T07:40:25.568Z,2.25
2022-11-03T07:42:59.172Z,2.90
2022-11-03T07:45:48.372Z,1.95
2022-11-03T07:48:46.912Z,2.63
2022-11-03T07:51:38.635Z,2.17
2022-11-03T07:54:08.844Z,1.75
2022-11-03T07:56:46.638Z,2.65
2022-11-03T08:01:55.628Z,2.40
2022-11-03T08:04:41.065Z,2.63
2022-11-03T08:07:08.447Z,2.50
2022-11-03T08:09:35.791Z,3.33
2022-11-03T08:12:03.085Z,4.28
2022-11-03T08:14:31.562Z,4.80
2022-11-03T08:16:58.896Z,5.75
2022-11-03T08:19:26.222Z,10.40
2022-11-03T08:21:53.495Z,14.07
2022-11-03T08:24:20.762Z,17.35
2022-11-03T08:26:48.091Z,16.27
2022-11-03T08:29:17.565Z,18.92
2022-11-03T08:31:46.068Z,12.20
2022-11-03T08:34:13.462Z,10.65
2022-11-03T08:36:40.715Z,10.48
2022-11-03T08:39:08.181Z,9.95
2022-11-03T08:41:35.641Z,6.40
2022-11-03T08:44:04.404Z,5.00
2022-11-03T08:46:32.583Z,5.38
2022-11-03T08:48:59.877Z,4.50
2022-11-03T08:51:27.173Z,3.42
2022-11-03T08:53:55.141Z,4.28
2022-11-03T08:56:22.979Z,3.35
2022-11-03T08:58:50.564Z,3.15
2022-11-03T09:01:18.006Z,2.80
2022-11-03T09:03:45.455Z,3.05
2022-11-03T09:06:13.847Z,2.83
2022-11-03T09:11:29.880Z,3.08
2022-11-03T09:13:57.841Z,2.95
2022-11-03T09:16:25.237Z,3.47
2022-11-03T09:18:53.101Z,3.30
2022-11-03T09:21:20.368Z,3.08
2022-11-03T09:23:49.033Z,3.17
2022-11-03T09:26:16.469Z,3.88
2022-11-03T09:28:43.915Z,2.97
2022-11-03T09:31:11.403Z,2.70
2022-11-03T09:33:38.897Z,2.08
2022-11-03T09:36:06.499Z,3.78
2022-11-03T09:38:33.930Z,5.15
2022-11-03T09:41:04.531Z,3.35
2022-11-03T09:43:37.094Z,2.95
2022-11-03T09:46:04.475Z,3.50
2022-11-03T09:48:31.888Z,3.42
2022-11-03T09:50:59.318Z,2.83
2022-11-03T09:53:26.625Z,2.53
2022-11-03T09:55:55.052Z,2.75
2022-11-03T09:58:22.374Z,2.85
2022-11-03T10:00:49.690Z,2.90
2022-11-03T10:03:18.580Z,2.60
2022-11-03T10:05:47.244Z,2.58
2022-11-03T10:08:29.750Z,2.67
2022-11-03T10:10:58.098Z,2.55
2022-11-03T10:13:30.078Z,2.33
2022-11-03T10:15:58.555Z,2.00
2022-11-03T10:18:27.859Z,2.13
2022-11-03T10:20:55.655Z,2.50
2022-11-03T10:23:22.900Z,3.08
2022-11-03T10:25:50.583Z,2.80
2022-11-03T10:28:24.449Z,2.40
2022-11-03T10:31:14.457Z,2.17
2022-11-03T10:33:54.986Z,1.80
2022-11-03T10:36:27.965Z,1.98
2022-11-03T10:38:56.000Z,1.55
2022-11-03T10:41:31.630Z,2.03
2022-11-03T10:44:11.115Z,2.25
2022-11-03T10:46:55.262Z,1.85
2022-11-03T10:49:22.888Z,2.13
2022-11-03T10:51:52.762Z,1.85
2022-11-03T10:54:23.447Z,1.80
2022-11-03T10:56:52.588Z,2.13
2022-11-03T10:59:23.024Z,1.48
2022-11-03T11:01:50.624Z,1.70
2022-11-03T11:04:20.127Z,1.60
2022-11-03T11:06:48.036Z,2.53
2022-11-03T11:09:26.555Z,1.70
2022-11-03T11:12:21.349Z,2.67
2022-11-03T11:15:00.226Z,3.13
2022-11-03T11:17:47.662Z,2.50
2022-11-03T11:20:19.560Z,2.30
2022-11-03T11:22:47.444Z,3.10
2022-11-03T11:25:15.639Z,2.15
2022-11-03T11:27:42.981Z,2.55
2022-11-03T11:30:19.383Z,2.28
2022-11-03T11:32:47.319Z,2.73
2022-11-03T11:35:26.655Z,3.60
2022-11-03T11:37:54.612Z,3.38
2022-11-03T11:40:24.904Z,3.35
2022-11-03T11:43:01.540Z,4.10
2022-11-03T11:46:06.573Z,3.33
2022-11-03T11:48:34.817Z,3.80
2022-11-03T11:51:04.084Z,3.78
2022-11-03T11:53:38.879Z,3.22
2022-11-03T11:56:11.907Z,3.58
2022-11-03T11:58:54.986Z,2.88
2022-11-03T12:01:37.716Z,3.50
2022-11-03T12:04:23.411Z,4.45
2022-11-03T12:06:51.223Z,3.20
2022-11-03T12:09:21.931Z,3.15
2022-11-03T12:11:55.492Z,2.67
2022-11-03T12:14:37.587Z,2.10
2022-11-03T12:17:17.514Z,2.60
2022-11-03T12:19:51.607Z,2.38
2022-11-03T12:22:24.931Z,2.53
2022-11-03T12:24:59.700Z,2.83
2022-11-03T12:27:27.629Z,2.47
2022-11-03T12:30:00.798Z,2.78
2022-11-03T12:32:35.784Z,1.67
2022-11-03T12:35:05.152Z,1.98
2022-11-03T12:37:34.277Z,1.73
2022-11-03T12:40:02.074Z,2.33
2022-11-03T12:42:29.523Z,1.60
2022-11-03T12:44:57.049Z,2.05
2022-11-03T12:47:24.527Z,1.88
2022-11-03T12:49:52.133Z,2.55
2022-11-03T12:52:19.441Z,2.50
2022-11-03T12:54:46.731Z,3.45
2022-11-03T12:57:15.403Z,2.97
2022-11-03T12:59:43.855Z,2.63
2022-11-03T13:02:12.283Z,1.98
2022-11-03T13:04:39.726Z,2.17
2022-11-03T13:07:07.138Z,2.30
2022-11-03T13:09:35.955Z,2.80
2022-11-03T13:12:21.795Z,2.88
2022-11-03T13:14:49.178Z,2.63
2022-11-03T13:17:16.515Z,2.15
2022-11-03T13:19:43.886Z,1.98
2022-11-03T13:22:11.278Z,2.25
2022-11-03T13:24:38.677Z,1.90
2022-11-03T13:27:07.441Z,1.73
2022-11-03T13:29:35.904Z,2.42
2022-11-03T13:32:04.648Z,1.30
2022-11-03T13:34:32.087Z,1.63
2022-11-03T13:36:59.529Z,1.00
2022-11-03T13:39:26.920Z,1.38
2022-11-03T13:41:54.283Z,1.50
2022-11-03T13:44:22.116Z,1.75
2022-11-03T13:46:49.455Z,1.67
2022-11-03T13:52:04.487Z,1.83
2022-11-03T14:00:09.256Z,2.22
2022-11-03T14:05:31.102Z,1.80
2022-11-03T14:07:59.063Z,3.40
2022-11-03T14:10:27.100Z,3.35
2022-11-03T14:12:54.390Z,2.92
2022-11-03T14:15:22.987Z,2.03
2022-11-03T14:17:50.257Z,1.80
2022-11-03T14:20:17.692Z,2.03
2022-11-03T14:22:45.327Z,1.90
2022-11-03T14:25:14.110Z,3.30
2022-11-03T14:27:41.525Z,4.25
2022-11-03T14:30:12.606Z,2.17
2022-11-03T14:32:39.995Z,1.85
2022-11-03T14:35:07.841Z,2.63
2022-11-03T14:37:36.466Z,2.85
2022-11-03T14:40:04.736Z,2.38
2022-11-03T14:42:32.008Z,1.60
2022-11-03T14:44:59.361Z,1.75
2022-11-03T14:47:27.592Z,3.17
2022-11-03T14:49:55.055Z,2.47
2022-11-03T14:52:22.336Z,3.03
2022-11-03T14:54:50.980Z,2.03
2022-11-03T14:57:18.221Z,2.20
2022-11-03T14:59:49.184Z,1.27
2022-11-03T15:02:19.682Z,1.77
2022-11-03T15:04:47.137Z,2.03
2022-11-03T15:07:14.460Z,1.75
2022-11-03T15:09:41.943Z,1.40
2022-11-03T15:12:09.337Z,1.00
2022-11-03T15:14:38.193Z,1.20
2022-11-03T15:17:05.519Z,1.80
2022-11-03T15:19:32.858Z,1.63
2022-11-03T15:22:00.202Z,2.00
2022-11-03T15:27:14.945Z,1.90
2022-11-03T15:29:42.300Z,2.78
2022-11-03T15:32:09.981Z,2.15
2022-11-03T15:34:37.285Z,1.88
2022-11-03T15:37:04.821Z,4.13
2022-11-03T15:39:32.619Z,1.60
2022-11-03T15:42:00.289Z,3.42
2022-11-03T15:44:27.735Z,3.60
2022-11-03T15:46:55.074Z,3.55
2022-11-03T15:49:22.366Z,1.60
2022-11-03T15:51:49.677Z,1.90
2022-11-03T15:54:17.012Z,2.20
2022-11-03T15:56:44.324Z,2.58
2022-11-03T15:59:11.588Z,2.05
2022-11-03T16:01:39.009Z,2.35
2022-11-03T16:04:06.732Z,1.85
2022-11-03T16:07:01.754Z,4.50
2022-11-03T16:09:21.650Z,4.22
2022-11-03T16:11:48.994Z,3.80
2022-11-03T16:14:18.326Z,6.10
2022-11-03T16:16:45.769Z,7.15
2022-11-03T16:19:13.132Z,5.97
2022-11-03T16:21:40.373Z,2.83
2022-11-03T16:24:08.059Z,1.98
2022-11-03T16:26:35.387Z,2.55
2022-11-03T16:29:02.846Z,2.55
2022-11-03T16:31:30.136Z,2.08
2022-11-03T16:33:58.921Z,2.13
2022-11-03T16:36:26.213Z,2.38
2022-11-03T16:38:53.551Z,2.28
2022-11-03T16:41:20.910Z,2.30
2022-11-03T16:43:49.755Z,2.20
2022-11-03T16:46:17.019Z,2.65
2022-11-03T16:48:45.417Z,2.78
2022-11-03T16:51:13.892Z,2.42
2022-11-03T16:53:41.112Z,2.60
2022-11-03T16:56:09.038Z,2.65
2022-11-03T16:58:37.947Z,2.40
2022-11-03T17:01:05.792Z,2.97
2022-11-03T17:03:33.073Z,2.63
2022-11-03T17:06:00.334Z,2.78
2022-11-03T17:11:14.981Z,2.58
2022-11-03T17:13:42.678Z,2.45
2022-11-03T17:16:09.808Z,2.83
2022-11-03T17:18:37.106Z,3.25
2022-11-03T17:21:04.387Z,6.07
2022-11-03T17:23:31.612Z,5.10
2022-11-03T17:26:01.539Z,4.03
2022-11-03T17:28:29.265Z,3.22
2022-11-03T17:30:56.513Z,4.45
2022-11-03T17:33:23.788Z,5.13
2022-11-03T17:35:51.063Z,3.92
2022-11-03T17:38:19.142Z,3.97
2022-11-03T17:40:48.028Z,4.60
2022-11-03T17:43:27.247Z,3.85
2022-11-03T17:45:55.604Z,4.82
2022-11-03T17:48:24.477Z,5.13
2022-11-03T17:50:55.453Z,4.13
2022-11-03T17:53:28.795Z,4.00
2022-11-03T17:56:27.833Z,4.13
2022-11-03T17:58:47.141Z,4.18
2022-11-03T18:01:24.892Z,4.85
2022-11-03T18:03:52.413Z,4.65
2022-11-03T18:06:20.913Z,3.53
2022-11-03T18:08:49.057Z,4.38
2022-11-03T18:11:43.970Z,3.97
2022-11-03T18:14:11.633Z,3.83
2022-11-03T18:16:40.747Z,4.35
2022-11-03T18:19:13.477Z,4.72
2022-11-03T18:21:41.208Z,4.05
2022-11-03T18:24:14.789Z,4.43
2022-11-03T18:26:43.873Z,3.55
2022-11-03T18:29:11.387Z,4.30
2022-11-03T18:31:49.563Z,5.68
2022-11-03T18:34:23.804Z,5.85
2022-11-03T18:36:52.840Z,6.05
2022-11-03T18:39:26.549Z,5.63
2022-11-03T18:41:54.070Z,5.35
2022-11-03T18:44:22.665Z,6.88
2022-11-03T18:46:55.410Z,5.82
2022-11-03T18:49:24.419Z,6.50
2022-11-03T18:52:00.846Z,6.00
2022-11-03T18:54:31.303Z,7.43
2022-11-03T18:56:59.239Z,6.40
2022-11-03T18:59:36.985Z,6.45
2022-11-03T19:02:21.247Z,5.43
2022-11-03T19:04:48.899Z,6.65
2022-11-03T19:07:31.447Z,7.90
2022-11-03T19:09:59.746Z,7.00
2022-11-03T19:12:27.122Z,7.40
2022-11-03T19:14:54.601Z,6.30
2022-11-03T19:17:24.434Z,7.18
2022-11-03T19:19:53.348Z,7.00
2022-11-03T19:22:22.312Z,7.72
2022-11-03T19:24:49.694Z,6.35
2022-11-03T19:27:26.853Z,7.22
2022-11-03T19:32:30.406Z,6.28
2022-11-03T19:35:01.873Z,7.32
2022-11-03T19:37:35.379Z,8.63
2022-11-03T19:40:08.800Z,7.63
2022-11-03T19:42:39.569Z,8.15
2022-11-03T19:45:12.886Z,7.35
2022-11-03T19:48:10.702Z,8.88
2022-11-03T19:50:36.940Z,7.85
2022-11-03T19:53:07.424Z,7.82
2022-11-03T19:55:38.826Z,8.45
2022-11-03T19:58:21.903Z,7.60
2022-11-03T20:00:50.479Z,7.82
2022-11-03T20:03:17.999Z,8.07
2022-11-03T20:05:49.605Z,7.93
2022-11-03T20:08:37.165Z,8.10
2022-11-03T20:11:06.305Z,8.55
2022-11-03T20:13:40.735Z,7.65
2022-11-03T20:16:15.470Z,9.27
2022-11-03T20:18:43.876Z,8.35
2022-11-03T20:21:15.642Z,7.80
2022-11-03T20:23:44.213Z,8.13
2022-11-03T20:26:16.969Z,8.30
2022-11-03T20:28:44.660Z,8.00
2022-11-03T20:31:12.833Z,7.85
2022-11-03T20:33:40.188Z,8.93
2022-11-03T20:36:17.775Z,7.93
2022-11-03T20:38:52.123Z,7.40
2022-11-03T20:41:19.600Z,7.85
2022-11-03T20:43:49.684Z,8.73
2022-11-03T20:46:32.717Z,8.65
2022-11-03T20:49:00.423Z,9.70
2022-11-03T20:51:33.370Z,9.90
2022-11-03T20:54:10.944Z,9.90
2022-11-03T20:56:38.377Z,9.50
2022-11-03T20:59:05.772Z,11.07
2022-11-03T21:01:34.071Z,10.48
2022-11-03T21:04:02.726Z,10.95
2022-11-03T21:06:32.339Z,10.70
2022-11-03T21:08:59.960Z,12.15
2022-11-03T21:11:29.967Z,10.85
2022-11-03T21:14:02.225Z,9.82
2022-11-03T21:16:49.077Z,9.00
2022-11-03T21:19:38.700Z,10.40
2022-11-03T21:22:50.416Z,8.57
2022-11-03T21:25:11.749Z,9.80
2022-11-03T21:27:41.733Z,12.07
2022-11-03T21:30:16.656Z,24.40
2022-11-03T21:32:44.294Z,13.18
2022-11-03T21:35:20.685Z,10.30
2022-11-03T21:37:48.200Z,10.70
2022-11-03T21:40:15.565Z,9.95
2022-11-03T21:43:01.614Z,8.10
2022-11-03T21:45:28.977Z,6.75
2022-11-03T21:48:15.284Z,5.82
2022-11-03T21:50:43.330Z,5.25
2022-11-03T21:53:11.472Z,5.18
2022-11-03T21:55:39.490Z,4.70
2022-11-03T21:58:09.140Z,5.90
2022-11-03T22:00:36.596Z,6.03
2022-11-03T22:03:04.042Z,5.10
2022-11-03T22:05:31.390Z,5.43
2022-11-03T22:07:58.677Z,5.32
2022-11-03T22:10:26.099Z,5.38
2022-11-03T22:12:53.617Z,6.60
2022-11-03T22:15:39.668Z,6.22
2022-11-03T22:18:08.726Z,5.15
2022-11-03T22:20:55.663Z,4.50
2022-11-03T22:23:41.504Z,4.60
2022-11-03T22:26:38.221Z,3.80
2022-11-03T22:29:25.621Z,4.05
2022-11-03T22:31:53.308Z,4.07
2022-11-03T22:34:43.881Z,3.58
2022-11-03T22:37:11.205Z,3.63
2022-11-03T22:39:56.972Z,3.80
2022-11-03T22:45:29.646Z,3.83
2022-11-03T22:47:57.292Z,3.50
2022-11-03T22:50:25.026Z,3.53
2022-11-03T22:52:52.879Z,3.70
2022-11-03T22:55:20.010Z,3.65
2022-11-03T22:57:48.068Z,4.22
2022-11-03T23:00:16.924Z,4.65
2022-11-03T23:02:44.297Z,4.97
2022-11-03T23:05:11.739Z,5.30
2022-11-03T23:07:41.533Z,5.28
2022-11-03T23:10:09.746Z,5.30
2022-11-03T23:12:37.346Z,5.63
2022-11-03T23:15:23.757Z,5.05
2022-11-03T23:18:09.712Z,5.63
2022-11-03T23:20:56.869Z,6.15
2022-11-03T23:23:43.427Z,6.28
2022-11-03T23:26:11.123Z,6.38
2022-11-03T23:28:38.524Z,6.53
2022-11-03T23:31:06.320Z,5.93
2022-11-03T23:33:34.890Z,7.65
2022-11-03T23:36:12.983Z,6.75
2022-11-03T23:38:41.032Z,6.57
2022-11-03T23:41:16.840Z,9.02
2022-11-03T23:43:45.227Z,6.72
2022-11-03T23:46:33.344Z,6.45
2022-11-03T23:49:00.636Z,7.53
2022-11-03T23:51:29.510Z,7.03
2022-11-03T23:53:58.133Z,7.45
2022-11-03T23:56:46.444Z,6.60
2022-11-03T23:59:16.086Z,6.43
